Time;durP1;ratioP1;P1;durP2;ratioP2;P2;SDS_P1;SDS_P2;PMS_P1;PMS_P2;Temp;Humidity;BMP_temperature;BMP_pressure;BME280_temperature;BME280_humidity;BME280_pressure;Samples;Min_cycle;Max_cycle;Signal;HPM_P1;HPM_P2
2024/01/07 00:01:36;;;;;;;27.00;24.10;;;0.20;99.90;;;;;;5121885;27;20858;-76
2024/01/07 00:04:02;;;;;;;25.13;22.50;;;0.20;99.90;;;;;;5107479;27;20038;-75
2024/01/07 00:06:28;;;;;;;26.53;23.83;;;0.20;99.90;;;;;;5106653;27;20091;-76
2024/01/07 00:08:54;;;;;;;27.73;23.77;;;0.20;99.90;;;;;;5123399;27;20172;-76
2024/01/07 00:11:19;;;;;;;27.97;24.53;;;0.20;99.90;;;;;;5113123;27;20038;-76
2024/01/07 00:13:45;;;;;;;27.77;24.77;;;0.20;99.90;;;;;;5097280;27;20035;-75
2024/01/07 00:16:11;;;;;;;28.27;25.23;;;0.20;99.90;;;;;;5119180;27;20043;-75
2024/01/07 00:18:37;;;;;;;27.80;24.87;;;0.20;99.90;;;;;;5119417;27;20038;-75
2024/01/07 00:21:03;;;;;;;28.57;25.53;;;0.20;99.90;;;;;;5117958;27;20039;-75
2024/01/07 00:23:29;;;;;;;26.87;24.13;;;0.20;99.90;;;;;;5097504;27;20523;-75
2024/01/07 00:25:54;;;;;;;28.83;25.83;;;0.20;99.90;;;;;;5116095;27;20103;-76
2024/01/07 00:28:23;;;;;;;28.23;25.20;;;0.20;99.90;;;;;;5115360;27;20050;-75
2024/01/07 00:30:52;;;;;;;29.10;25.90;;;0.20;99.90;;;;;;5133750;27;20043;-75
2024/01/07 00:33:17;;;;;;;28.20;25.20;;;0.20;99.90;;;;;;5121677;27;20172;-76
2024/01/07 00:35:43;;;;;;;28.27;25.37;;;0.20;99.90;;;;;;5107998;27;20642;-75
2024/01/07 00:38:09;;;;;;;28.43;25.30;;;0.20;99.90;;;;;;5118254;27;20564;-75
2024/01/07 00:40:35;;;;;;;30.03;26.80;;;0.20;99.90;;;;;;5115594;27;20096;-75
2024/01/07 00:43:00;;;;;;;30.40;26.30;;;0.20;99.90;;;;;;5121095;27;20042;-76
2024/01/07 00:45:26;;;;;;;28.37;25.37;;;0.20;99.90;;;;;;5118786;27;20047;-76
2024/01/07 00:47:54;;;;;;;30.67;26.37;;;0.20;99.90;;;;;;5110321;27;20107;-76
2024/01/07 00:50:20;;;;;;;29.23;26.07;;;0.20;99.90;;;;;;5110084;27;20242;-76
2024/01/07 00:52:46;;;;;;;28.73;25.73;;;0.20;99.90;;;;;;5122646;27;20043;-76
2024/01/07 00:55:12;;;;;;;28.20;25.23;;;0.20;99.90;;;;;;5107108;27;20042;-77
2024/01/07 00:57:38;;;;;;;28.37;25.17;;;0.20;99.90;;;;;;5115749;27;20493;-77
2024/01/07 01:00:07;;;;;;;29.63;26.53;;;0.20;99.90;;;;;;5128448;27;20901;-76
2024/01/07 01:02:33;;;;;;;28.67;25.35;;;0.20;99.90;;;;;;5109194;27;20389;-76
2024/01/07 01:04:59;;;;;;;27.40;24.47;;;0.30;99.90;;;;;;5121219;27;20195;-76
2024/01/07 01:07:25;;;;;;;29.10;25.27;;;0.20;99.90;;;;;;5125089;27;20113;-76
2024/01/07 01:09:51;;;;;;;25.60;22.90;;;0.20;99.90;;;;;;5118493;27;20043;-76
2024/01/07 01:12:17;;;;;;;27.33;24.43;;;0.30;99.90;;;;;;5116568;27;20039;-75
2024/01/07 01:14:43;;;;;;;25.60;23.00;;;0.30;99.90;;;;;;5111032;27;20381;-76
2024/01/07 01:17:08;;;;;;;25.27;22.67;;;0.30;99.90;;;;;;5122383;27;20043;-76
2024/01/07 01:19:34;;;;;;;24.50;21.93;;;0.30;99.90;;;;;;5122650;27;20051;-76
2024/01/07 01:22:00;;;;;;;25.87;23.07;;;0.20;99.90;;;;;;5135174;27;20169;-75
2024/01/07 01:24:26;;;;;;;24.87;22.37;;;0.30;99.90;;;;;;5111939;27;20058;-76
2024/01/07 01:26:51;;;;;;;24.30;21.73;;;0.30;99.90;;;;;;5124690;27;20555;-76
2024/01/07 01:29:20;;;;;;;24.43;21.93;;;0.30;99.90;;;;;;5122298;27;20039;-76
2024/01/07 01:31:46;;;;;;;23.83;21.33;;;0.30;99.90;;;;;;5126525;27;20400;-76
2024/01/07 01:34:12;;;;;;;24.37;21.87;;;0.20;99.90;;;;;;5122153;27;20035;-76
2024/01/07 01:36:37;;;;;;;23.67;21.27;;;0.20;99.90;;;;;;5143092;27;20129;-76
2024/01/07 01:39:03;;;;;;;23.60;21.27;;;0.20;99.90;;;;;;5125000;27;20042;-76
2024/01/07 01:41:29;;;;;;;22.70;20.33;;;0.20;99.90;;;;;;5111634;27;20493;-76
2024/01/07 01:43:59;;;;;;;22.43;20.13;;;0.20;99.90;;;;;;5115252;27;20038;-76
2024/01/07 01:46:26;;;;;;;22.20;20.08;;;0.30;99.90;;;;;;5112921;27;20100;-75
2024/01/07 01:48:52;;;;;;;22.43;20.13;;;0.30;99.90;;;;;;5123680;27;20049;-76
2024/01/07 01:51:18;;;;;;;21.73;19.53;;;0.30;99.90;;;;;;5121415;27;20069;-76
2024/01/07 01:53:47;;;;;;;22.17;19.93;;;0.30;99.90;;;;;;5117960;27;20035;-76
2024/01/07 01:56:13;;;;;;;21.67;19.37;;;0.30;99.90;;;;;;5120870;27;20076;-76
2024/01/07 01:58:39;;;;;;;22.80;19.90;;;0.30;99.90;;;;;;5098096;27;20065;-76
2024/01/07 02:01:05;;;;;;;22.77;20.57;;;0.20;99.90;;;;;;5118253;27;20073;-75
2024/01/07 02:03:31;;;;;;;21.13;18.93;;;0.30;99.90;;;;;;5117528;27;20047;-76
2024/01/07 02:05:58;;;;;;;21.33;19.17;;;0.30;99.90;;;;;;5104508;27;20050;-76
2024/01/07 02:08:26;;;;;;;20.57;18.47;;;0.30;99.90;;;;;;5097418;27;20050;-75
2024/01/07 02:10:52;;;;;;;21.37;19.10;;;0.30;99.90;;;;;;5114392;27;20050;-76
2024/01/07 02:13:17;;;;;;;21.20;18.90;;;0.30;99.90;;;;;;5114095;27;20039;-76
2024/01/07 02:15:43;;;;;;;21.23;19.00;;;0.30;99.90;;;;;;5138494;27;20078;-76
2024/01/07 02:18:09;;;;;;;22.10;19.20;;;0.20;99.90;;;;;;5116725;27;20068;-76
2024/01/07 02:20:38;;;;;;;19.27;17.37;;;0.30;99.90;;;;;;5121741;27;20519;-76
2024/01/07 02:23:04;;;;;;;19.40;17.33;;;0.30;99.90;;;;;;5121926;27;20389;-76
2024/01/07 02:25:37;;;;;;;20.33;18.13;;;0.30;99.90;;;;;;5118427;27;20103;-75
2024/01/07 02:28:04;;;;;;;18.97;16.97;;;0.20;99.90;;;;;;5123446;27;20043;-76
2024/01/07 02:30:30;;;;;;;19.80;17.20;;;0.20;99.90;;;;;;5116248;27;20113;-77
2024/01/07 02:32:56;;;;;;;19.17;17.17;;;0.20;99.90;;;;;;5119275;27;20129;-76
2024/01/07 02:35:24;;;;;;;18.63;16.83;;;0.20;99.90;;;;;;5141096;27;20069;-76
2024/01/07 02:37:50;;;;;;;18.17;16.10;;;0.20;99.90;;;;;;5099166;27;20517;-76
2024/01/07 02:40:16;;;;;;;18.33;15.87;;;0.20;99.90;;;;;;5124192;27;20053;-77
2024/01/07 02:42:42;;;;;;;17.90;15.90;;;0.20;99.90;;;;;;5107043;27;20050;-77
2024/01/07 02:45:08;;;;;;;18.37;15.60;;;0.20;99.90;;;;;;5132614;27;20051;-76
2024/01/07 02:47:33;;;;;;;18.50;15.73;;;0.20;99.90;;;;;;5120740;27;20054;-76
2024/01/07 02:49:59;;;;;;;16.60;14.47;;;0.30;99.90;;;;;;5119662;27;20035;-76
2024/01/07 02:52:28;;;;;;;16.00;14.40;;;0.30;99.90;;;;;;5130586;27;20049;-75
2024/01/07 02:54:53;;;;;;;17.17;15.40;;;0.20;99.90;;;;;;5120771;27;20062;-77
2024/01/07 02:57:19;;;;;;;16.67;14.13;;;0.10;99.90;;;;;;5108728;27;20065;-76
2024/01/07 02:59:45;;;;;;;15.50;13.90;;;0.20;99.90;;;;;;5122038;27;20039;-77
2024/01/07 03:02:11;;;;;;;15.03;13.27;;;0.20;99.90;;;;;;5121159;27;20043;-77
2024/01/07 03:04:36;;;;;;;15.67;13.50;;;0.20;99.90;;;;;;5133305;27;20047;-76
2024/01/07 03:07:02;;;;;;;13.43;12.03;;;0.20;99.90;;;;;;5108089;27;20149;-76
2024/01/07 03:09:28;;;;;;;13.80;12.40;;;0.10;99.90;;;;;;5117764;27;20882;-77
2024/01/07 03:11:54;;;;;;;14.33;12.87;;;0.10;99.90;;;;;;5110101;27;20095;-77
2024/01/07 03:14:21;;;;;;;15.53;13.00;;;0.10;99.90;;;;;;5118916;27;20034;-77
2024/01/07 03:16:47;;;;;;;15.30;13.70;;;0.10;99.90;;;;;;5119525;27;20047;-77
2024/01/07 03:19:12;;;;;;;14.27;12.50;;;0.00;99.90;;;;;;5137308;27;20035;-77
2024/01/07 03:21:39;;;;;;;15.43;13.10;;;0.00;99.90;;;;;;5099368;27;20055;-76
2024/01/07 03:24:05;;;;;;;14.07;12.30;;;0.00;99.90;;;;;;5106955;27;20568;-77
2024/01/07 03:26:32;;;;;;;17.17;12.67;;;0.00;99.90;;;;;;5126320;27;20121;-78
2024/01/07 03:29:02;;;;;;;13.93;12.50;;;0.00;99.90;;;;;;5121821;27;20043;-78
2024/01/07 03:31:28;;;;;;;13.03;11.63;;;-0.10;99.90;;;;;;5119999;27;20127;-78
2024/01/07 03:33:54;;;;;;;14.10;12.60;;;0.00;99.90;;;;;;5124519;27;20053;-77
2024/01/07 03:36:20;;;;;;;14.37;12.47;;;0.00;99.90;;;;;;5120279;27;20043;-78
2024/01/07 03:38:45;;;;;;;13.10;11.67;;;0.00;99.90;;;;;;5123192;27;20043;-78
2024/01/07 03:41:17;;;;;;;13.23;11.63;;;0.00;99.90;;;;;;5119104;27;20035;-77
2024/01/07 03:43:43;;;;;;;14.57;11.73;;;0.00;99.90;;;;;;5127659;27;20749;-77
2024/01/07 03:46:09;;;;;;;13.63;11.43;;;0.00;99.90;;;;;;5100919;27;20038;-78
2024/01/07 03:48:35;;;;;;;14.47;11.23;;;0.00;99.90;;;;;;5137988;27;20505;-78
2024/01/07 03:51:01;;;;;;;13.53;11.53;;;0.10;99.90;;;;;;5104780;27;20412;-78
2024/01/07 03:53:26;;;;;;;13.23;10.97;;;0.10;99.90;;;;;;5136997;27;20057;-78
2024/01/07 03:55:52;;;;;;;12.60;10.93;;;0.00;99.90;;;;;;5101423;27;20046;-78
2024/01/07 03:58:18;;;;;;;13.70;11.53;;;0.00;99.90;;;;;;5134135;27;20086;-78
2024/01/07 04:00:44;;;;;;;13.83;12.43;;;0.10;99.90;;;;;;5116053;27;20050;-78
2024/01/07 04:03:09;;;;;;;15.10;12.20;;;0.00;99.90;;;;;;5139841;27;20035;-77
2024/01/07 04:05:36;;;;;;;12.83;11.50;;;0.00;99.90;;;;;;5125050;27;20050;-78
2024/01/07 04:08:02;;;;;;;13.67;11.33;;;0.10;99.90;;;;;;5116134;27;20060;-78
2024/01/07 04:10:28;;;;;;;12.50;11.20;;;0.10;99.90;;;;;;5113569;27;20141;-78
2024/01/07 04:12:54;;;;;;;11.53;10.33;;;0.10;99.90;;;;;;5108746;27;20658;-77
2024/01/07 04:15:20;;;;;;;12.30;11.00;;;0.10;99.90;;;;;;5122687;27;20035;-78
2024/01/07 04:17:45;;;;;;;11.10;9.90;;;0.00;99.90;;;;;;5122085;27;20525;-76
2024/01/07 04:20:13;;;;;;;12.13;10.63;;;0.10;99.90;;;;;;5124611;27;20035;-76
2024/01/07 04:22:39;;;;;;;11.70;10.40;;;0.10;99.90;;;;;;5115395;27;20450;-76
2024/01/07 04:25:08;;;;;;;11.97;10.47;;;0.10;99.90;;;;;;5121507;27;20034;-77
2024/01/07 04:27:37;;;;;;;12.40;9.90;;;0.10;99.90;;;;;;5111077;27;20039;-77
2024/01/07 04:30:04;;;;;;;12.15;10.13;;;0.10;99.90;;;;;;5111998;27;20027;-78
2024/01/07 04:32:30;;;;;;;10.57;9.37;;;0.00;99.90;;;;;;5123986;27;20072;-78
2024/01/07 04:34:59;;;;;;;10.13;9.00;;;0.00;99.90;;;;;;5111846;27;20485;-78
2024/01/07 04:37:24;;;;;;;10.27;9.10;;;-0.10;99.90;;;;;;5112614;27;20642;-77
2024/01/07 04:39:50;;;;;;;10.90;9.80;;;0.00;99.90;;;;;;5119272;27;20046;-77
2024/01/07 04:42:18;;;;;;;10.00;8.67;;;0.00;99.90;;;;;;5118972;27;20566;-76
2024/01/07 04:44:43;;;;;;;10.10;8.90;;;0.00;99.90;;;;;;5103936;27;20101;-77
2024/01/07 04:47:30;;;;;;;10.77;8.77;;;0.00;99.90;;;;;;5122737;27;20070;-77
2024/01/07 04:49:58;;;;;;;10.67;9.40;;;0.00;99.90;;;;;;5106072;27;20402;-78
2024/01/07 04:52:27;;;;;;;10.70;9.37;;;0.10;99.90;;;;;;5126962;27;20179;-77
2024/01/07 04:54:54;;;;;;;9.67;8.47;;;-0.10;99.90;;;;;;5116898;27;20054;-78
2024/01/07 04:57:20;;;;;;;10.73;8.73;;;-0.10;99.90;;;;;;5119736;27;20035;-76
2024/01/07 04:59:48;;;;;;;10.70;9.57;;;-0.10;99.90;;;;;;5126797;27;20102;-78
2024/01/07 05:02:14;;;;;;;10.63;9.20;;;0.00;99.90;;;;;;5143599;27;20044;-77
2024/01/07 05:04:41;;;;;;;8.80;7.77;;;0.00;99.90;;;;;;5097540;27;20066;-77
2024/01/07 05:07:07;;;;;;;11.00;8.87;;;0.00;99.90;;;;;;5130133;27;20187;-77
2024/01/07 05:09:33;;;;;;;9.60;8.03;;;-0.10;99.90;;;;;;5116322;27;20991;-77
2024/01/07 05:11:59;;;;;;;9.60;8.57;;;0.00;99.90;;;;;;5132377;27;20034;-76
2024/01/07 05:14:28;;;;;;;9.27;8.27;;;-0.10;99.90;;;;;;5132364;27;20103;-76
2024/01/07 05:16:54;;;;;;;10.57;7.60;;;0.00;99.90;;;;;;5138950;27;20511;-76
2024/01/07 05:19:20;;;;;;;8.97;7.80;;;0.10;99.90;;;;;;5130228;27;20043;-78
2024/01/07 05:21:46;;;;;;;9.63;7.20;;;0.00;99.90;;;;;;5130382;27;20054;-77
2024/01/07 05:24:12;;;;;;;9.03;7.07;;;0.10;99.90;;;;;;5128403;27;20073;-77
2024/01/07 05:26:44;;;;;;;7.90;6.77;;;0.10;99.90;;;;;;5117281;27;20648;-77
2024/01/07 05:29:11;;;;;;;8.30;7.03;;;-0.10;99.90;;;;;;5127737;27;20043;-78
2024/01/07 05:31:38;;;;;;;10.13;6.73;;;0.00;99.90;;;;;;5110110;27;20070;-77
2024/01/07 05:34:04;;;;;;;8.33;6.30;;;0.00;99.90;;;;;;5129783;27;20622;-77
2024/01/07 05:36:29;;;;;;;9.33;6.30;;;0.00;99.90;;;;;;5114564;27;20047;-77
2024/01/07 05:38:58;;;;;;;7.00;5.87;;;0.00;99.90;;;;;;5107832;27;20053;-77
2024/01/07 05:41:24;;;;;;;6.23;5.27;;;0.00;99.90;;;;;;5128541;27;20041;-77
2024/01/07 05:43:51;;;;;;;7.40;5.00;;;0.00;99.90;;;;;;5120388;27;20054;-76
2024/01/07 05:46:17;;;;;;;6.80;4.90;;;0.00;99.90;;;;;;5123153;27;20053;-77
2024/01/07 05:48:48;;;;;;;6.20;4.47;;;0.00;99.90;;;;;;5139196;27;20051;-76
2024/01/07 05:51:14;;;;;;;5.90;4.30;;;0.10;99.90;;;;;;5138934;27;20039;-76
2024/01/07 05:53:41;;;;;;;6.40;4.67;;;0.10;99.90;;;;;;5116470;27;20072;-76
2024/01/07 05:56:07;;;;;;;7.23;3.97;;;0.00;99.90;;;;;;5127962;27;20112;-76
2024/01/07 05:58:33;;;;;;;5.77;3.97;;;0.10;99.90;;;;;;5130066;27;20097;-77
2024/01/07 06:01:00;;;;;;;8.10;4.20;;;0.00;99.90;;;;;;5126922;27;20130;-76
2024/01/07 06:03:26;;;;;;;6.17;3.80;;;0.00;99.90;;;;;;5135615;27;20050;-76
2024/01/07 06:05:52;;;;;;;5.47;3.83;;;0.10;99.90;;;;;;5113785;27;20033;-76
2024/01/07 06:08:17;;;;;;;5.37;3.90;;;0.00;99.90;;;;;;5125539;27;20038;-76
2024/01/07 06:10:44;;;;;;;7.00;4.07;;;0.00;99.90;;;;;;5127127;27;20695;-76
2024/01/07 06:13:10;;;;;;;7.57;3.80;;;0.00;99.90;;;;;;5126056;27;20057;-76
2024/01/07 06:15:35;;;;;;;5.70;3.90;;;0.00;99.90;;;;;;5116417;27;20400;-76
2024/01/07 06:18:02;;;;;;;6.17;4.10;;;0.10;99.90;;;;;;5139952;27;20043;-77
2024/01/07 06:20:28;;;;;;;6.17;3.70;;;0.10;99.90;;;;;;5145906;27;20690;-77
2024/01/07 06:22:54;;;;;;;5.70;3.73;;;0.10;99.90;;;;;;5141000;27;20057;-77
2024/01/07 06:25:20;;;;;;;6.20;3.87;;;0.10;99.90;;;;;;5144873;27;20426;-77
2024/01/07 06:27:46;;;;;;;5.17;3.77;;;0.00;99.90;;;;;;5140872;27;20680;-76
2024/01/07 06:30:12;;;;;;;4.90;3.43;;;0.00;99.90;;;;;;5122107;27;20043;-76
2024/01/07 06:32:37;;;;;;;6.07;3.50;;;0.10;99.90;;;;;;5131480;27;20045;-76
2024/01/07 06:35:04;;;;;;;5.23;3.40;;;0.10;99.90;;;;;;5130676;27;20046;-76
2024/01/07 06:37:30;;;;;;;5.10;3.37;;;0.10;99.90;;;;;;5104193;27;20502;-76
2024/01/07 06:39:58;;;;;;;5.03;3.20;;;0.10;99.90;;;;;;5131650;27;20043;-77
2024/01/07 06:42:24;;;;;;;5.97;3.27;;;0.10;99.90;;;;;;5122459;27;20099;-76
2024/01/07 06:44:50;;;;;;;5.40;3.20;;;0.10;99.90;;;;;;5125142;27;20085;-76
2024/01/07 06:47:16;;;;;;;5.93;3.53;;;0.10;99.90;;;;;;5107850;27;20614;-76
2024/01/07 06:49:41;;;;;;;4.83;2.83;;;0.20;99.90;;;;;;5145465;27;20117;-77
2024/01/07 06:52:07;;;;;;;5.87;3.70;;;0.10;99.90;;;;;;5137169;27;20485;-76
2024/01/07 06:54:33;;;;;;;5.33;3.27;;;0.10;99.90;;;;;;5132037;27;20047;-77
2024/01/07 06:56:59;;;;;;;5.23;3.70;;;0.10;99.90;;;;;;5111366;27;20567;-77
2024/01/07 06:59:25;;;;;;;6.10;3.50;;;0.00;99.90;;;;;;5127240;27;20039;-77
2024/01/07 07:01:53;;;;;;;7.47;3.30;;;0.00;99.90;;;;;;5122822;27;20061;-76
2024/01/07 07:04:19;;;;;;;4.57;2.80;;;0.10;99.90;;;;;;5107397;27;20075;-77
2024/01/07 07:06:44;;;;;;;6.43;3.60;;;0.10;99.90;;;;;;5132880;27;20053;-76
2024/01/07 07:09:12;;;;;;;5.67;3.10;;;0.30;99.90;;;;;;5119625;27;20039;-76
2024/01/07 07:11:38;;;;;;;4.40;3.27;;;0.10;99.90;;;;;;5129852;27;20393;-77
2024/01/07 07:14:04;;;;;;;5.77;3.43;;;0.10;99.90;;;;;;5128719;27;20046;-77
2024/01/07 07:16:29;;;;;;;5.87;3.57;;;0.10;99.90;;;;;;5130454;27;20038;-77
2024/01/07 07:18:55;;;;;;;6.00;3.47;;;0.10;99.90;;;;;;5130369;27;20039;-76
2024/01/07 07:21:21;;;;;;;6.77;3.30;;;0.10;99.90;;;;;;5138236;27;20039;-76
2024/01/07 07:23:47;;;;;;;7.50;3.73;;;0.20;99.90;;;;;;5125465;27;20047;-76
2024/01/07 07:26:12;;;;;;;5.43;3.23;;;0.10;99.90;;;;;;5132119;27;20047;-77
2024/01/07 07:28:41;;;;;;;5.47;3.33;;;0.10;99.90;;;;;;5111428;27;20046;-75
2024/01/07 07:31:07;;;;;;;4.83;2.93;;;0.10;99.90;;;;;;5112743;27;20043;-76
2024/01/07 07:33:38;;;;;;;5.30;3.30;;;0.20;99.90;;;;;;5112973;27;20656;-75
2024/01/07 07:36:04;;;;;;;4.93;2.70;;;0.20;99.90;;;;;;5147228;27;20527;-76
2024/01/07 07:38:29;;;;;;;6.00;3.30;;;0.20;99.90;;;;;;5119464;27;20374;-76
2024/01/07 07:40:59;;;;;;;5.53;3.03;;;0.20;99.90;;;;;;5139760;27;20054;-76
2024/01/07 07:43:29;;;;;;;4.30;2.72;;;0.30;99.90;;;;;;5128974;27;20034;-76
2024/01/07 07:45:55;;;;;;;4.75;2.78;;;0.20;99.90;;;;;;5131250;27;20076;-76
2024/01/07 07:48:21;;;;;;;4.73;2.60;;;0.10;99.90;;;;;;5127016;27;20087;-76
2024/01/07 07:50:47;;;;;;;6.27;2.87;;;0.20;99.90;;;;;;5113311;27;20043;-76
2024/01/07 07:53:13;;;;;;;4.03;2.50;;;0.20;99.90;;;;;;5122595;27;20039;-77
2024/01/07 07:55:40;;;;;;;4.63;2.80;;;0.20;99.90;;;;;;5122291;27;20485;-75
2024/01/07 07:58:05;;;;;;;4.13;2.83;;;0.20;99.90;;;;;;5110946;27;20035;-76
2024/01/07 08:00:31;;;;;;;5.50;2.80;;;0.10;99.90;;;;;;5131168;27;20130;-76
2024/01/07 08:02:57;;;;;;;4.97;2.67;;;0.10;99.90;;;;;;5112577;27;20129;-76
2024/01/07 08:05:26;;;;;;;6.37;2.40;;;0.10;99.90;;;;;;5131825;27;20070;-75
2024/01/07 08:07:56;;;;;;;5.50;2.70;;;0.10;99.90;;;;;;5113841;27;20125;-76
2024/01/07 08:10:22;;;;;;;4.45;2.38;;;0.00;99.90;;;;;;5133650;27;20445;-76
2024/01/07 08:12:49;;;;;;;5.70;2.93;;;0.00;99.90;;;;;;5107561;27;20054;-76
2024/01/07 08:15:15;;;;;;;5.47;2.83;;;0.00;99.90;;;;;;5121121;27;20377;-76
2024/01/07 08:17:40;;;;;;;5.60;2.70;;;-0.10;99.90;;;;;;5113708;27;20058;-76
2024/01/07 08:20:07;;;;;;;4.00;2.57;;;-0.10;99.90;;;;;;5144963;27;20090;-76
2024/01/07 08:22:32;;;;;;;3.87;2.33;;;-0.20;99.90;;;;;;5114747;27;20046;-76
2024/01/07 08:24:58;;;;;;;4.30;2.83;;;-0.20;99.90;;;;;;5116346;27;20369;-76
2024/01/07 08:27:24;;;;;;;5.13;2.80;;;-0.20;99.90;;;;;;5103252;27;20505;-76
2024/01/07 08:29:49;;;;;;;4.40;2.40;;;-0.20;99.90;;;;;;5108960;27;20042;-76
2024/01/07 08:32:15;;;;;;;3.73;2.30;;;-0.20;99.90;;;;;;5131941;27;20194;-76
2024/01/07 08:34:41;;;;;;;6.37;2.83;;;-0.20;99.90;;;;;;5133876;27;20397;-76
2024/01/07 08:37:08;;;;;;;6.43;2.63;;;-0.20;99.90;;;;;;5127530;27;20119;-76
2024/01/07 08:39:34;;;;;;;3.83;2.40;;;-0.20;99.90;;;;;;5130678;27;20049;-76
2024/01/07 08:42:00;;;;;;;4.60;2.60;;;-0.30;99.90;;;;;;5128168;27;20051;-76
2024/01/07 08:44:28;;;;;;;4.57;2.93;;;-0.20;99.90;;;;;;5128506;27;20145;-76
2024/01/07 08:46:54;;;;;;;4.87;2.70;;;-0.30;99.90;;;;;;5119813;27;20035;-77
2024/01/07 08:49:20;;;;;;;4.27;2.83;;;-0.30;99.90;;;;;;5129579;27;20042;-76
2024/01/07 08:51:46;;;;;;;4.93;2.80;;;-0.30;99.90;;;;;;5130433;27;20633;-76
2024/01/07 08:54:11;;;;;;;4.57;2.33;;;-0.30;99.90;;;;;;5114613;27;20035;-77
2024/01/07 08:56:39;;;;;;;4.97;3.00;;;-0.30;99.90;;;;;;5127076;27;20057;-76
2024/01/07 08:59:05;;;;;;;5.10;2.80;;;-0.40;99.90;;;;;;5114138;27;20062;-76
2024/01/07 09:01:30;;;;;;;4.70;2.43;;;-0.30;99.90;;;;;;5118287;27;20035;-75
2024/01/07 09:03:56;;;;;;;4.87;2.63;;;-0.20;99.90;;;;;;5118565;27;20493;-77
2024/01/07 09:06:22;;;;;;;5.50;3.13;;;-0.30;99.90;;;;;;5111907;27;20039;-76
2024/01/07 09:08:48;;;;;;;4.90;2.60;;;-0.40;99.90;;;;;;5120245;27;20556;-76
2024/01/07 09:11:14;;;;;;;4.30;2.53;;;-0.20;99.90;;;;;;5120475;27;20111;-77
2024/01/07 09:13:39;;;;;;;4.70;2.80;;;-0.40;99.90;;;;;;5114164;27;20416;-75
2024/01/07 09:16:06;;;;;;;4.27;2.57;;;-0.30;99.90;;;;;;5123615;27;20119;-77
2024/01/07 09:18:32;;;;;;;4.93;2.67;;;-0.20;99.90;;;;;;5125027;27;20878;-76
2024/01/07 09:20:58;;;;;;;4.70;2.17;;;-0.10;99.90;;;;;;5120117;27;20046;-76
2024/01/07 09:23:23;;;;;;;3.97;2.13;;;-0.10;99.90;;;;;;5122138;27;20099;-77
2024/01/07 09:25:49;;;;;;;3.67;2.00;;;-0.10;99.90;;;;;;5102549;27;20441;-76
2024/01/07 09:28:15;;;;;;;4.30;2.10;;;0.00;99.90;;;;;;5132542;27;20042;-76
2024/01/07 09:30:41;;;;;;;4.13;2.23;;;0.00;99.90;;;;;;5127992;27;20043;-75
2024/01/07 09:33:07;;;;;;;3.80;2.37;;;0.20;99.90;;;;;;5122637;27;20047;-75
2024/01/07 09:35:32;;;;;;;4.73;2.47;;;0.20;99.90;;;;;;5116754;27;20131;-75
2024/01/07 09:37:58;;;;;;;5.50;2.47;;;0.10;99.90;;;;;;5107783;27;20119;-76
2024/01/07 09:40:24;;;;;;;3.77;2.03;;;0.10;99.90;;;;;;5118571;27;20042;-76
2024/01/07 09:42:50;;;;;;;4.87;2.03;;;0.20;99.90;;;;;;5113865;27;20039;-75
2024/01/07 09:45:18;;;;;;;3.77;2.10;;;0.20;99.90;;;;;;5121430;27;20039;-76
2024/01/07 09:47:45;;;;;;;3.97;1.77;;;0.30;99.90;;;;;;5122976;27;20381;-76
2024/01/07 09:50:12;;;;;;;3.70;2.20;;;0.40;99.90;;;;;;5111214;27;20050;-76
2024/01/07 09:52:43;;;;;;;5.63;2.07;;;0.40;99.90;;;;;;5129554;27;20058;-76
2024/01/07 09:55:12;;;;;;;4.20;1.90;;;0.40;99.90;;;;;;5120456;27;20068;-77
2024/01/07 09:57:40;;;;;;;3.77;2.53;;;0.40;99.90;;;;;;5126143;27;20129;-77
2024/01/07 10:00:07;;;;;;;3.67;1.93;;;0.30;99.90;;;;;;5098176;27;20043;-77
2024/01/07 10:02:35;;;;;;;3.70;2.47;;;0.40;99.90;;;;;;5126563;27;20030;-75
2024/01/07 10:05:01;;;;;;;3.63;1.90;;;0.40;99.90;;;;;;5121684;27;20408;-76
2024/01/07 10:07:26;;;;;;;5.03;2.57;;;0.40;99.90;;;;;;5107194;27;20035;-76
2024/01/07 10:09:54;;;;;;;6.27;2.17;;;0.50;99.90;;;;;;5124062;27;20103;-76
2024/01/07 10:12:23;;;;;;;4.20;2.20;;;0.40;99.90;;;;;;5094672;27;20082;-76
2024/01/07 10:14:49;;;;;;;4.33;2.33;;;0.40;99.90;;;;;;5101419;27;20066;-75
2024/01/07 10:17:18;;;;;;;3.37;2.23;;;0.40;99.90;;;;;;5119989;27;20039;-76
2024/01/07 10:19:48;;;;;;;4.07;2.38;;;0.40;99.90;;;;;;5122230;27;20042;-75
2024/01/07 10:22:15;;;;;;;3.77;2.17;;;0.50;99.90;;;;;;5123123;27;20070;-75
2024/01/07 10:24:43;;;;;;;3.53;2.07;;;0.60;99.90;;;;;;5128627;27;20047;-75
2024/01/07 10:27:10;;;;;;;4.73;1.90;;;0.50;99.90;;;;;;5120882;27;20042;-76
2024/01/07 10:29:37;;;;;;;4.20;2.37;;;0.50;99.90;;;;;;5107616;27;20042;-76
2024/01/07 10:32:04;;;;;;;3.20;2.40;;;0.50;99.90;;;;;;5103123;27;20054;-75
2024/01/07 10:34:37;;;;;;;4.13;2.47;;;0.50;99.90;;;;;;5105532;27;20080;-77
2024/01/07 10:37:04;;;;;;;5.37;2.13;;;0.60;99.90;;;;;;5104463;27;20561;-75
2024/01/07 10:39:30;;;;;;;3.97;2.23;;;0.70;99.90;;;;;;5113558;27;20517;-75
2024/01/07 10:41:59;;;;;;;4.83;2.40;;;0.60;99.90;;;;;;5123730;27;20055;-75
2024/01/07 10:44:27;;;;;;;5.30;2.70;;;0.60;99.90;;;;;;5125420;27;20030;-76
2024/01/07 10:46:57;;;;;;;3.63;2.47;;;0.80;99.90;;;;;;5100954;27;20099;-76
2024/01/07 10:49:30;;;;;;;4.63;2.33;;;0.70;99.90;;;;;;5129839;27;20042;-77
2024/01/07 10:52:07;;;;;;;4.83;2.40;;;0.70;99.90;;;;;;5116854;27;20043;-77
2024/01/07 10:54:39;;;;;;;3.10;2.03;;;0.70;99.90;;;;;;5121658;27;20050;-77
2024/01/07 10:57:35;;;;;;;4.30;2.70;;;0.70;99.90;;;;;;5107183;27;20458;-77
2024/01/07 11:00:06;;;;;;;3.10;2.10;;;0.80;99.90;;;;;;5115506;27;20369;-76
2024/01/07 11:02:39;;;;;;;3.83;2.27;;;0.80;99.90;;;;;;5124376;27;20042;-77
2024/01/07 11:05:11;;;;;;;4.50;2.63;;;0.80;99.90;;;;;;5120311;27;20051;-77
2024/01/07 11:08:08;;;;;;;4.93;2.03;;;0.90;99.90;;;;;;5106755;27;20079;-77
2024/01/07 11:10:43;;;;;;;4.13;2.40;;;0.70;99.90;;;;;;5081538;27;20047;-77
2024/01/07 11:13:09;;;;;;;3.90;2.10;;;0.80;99.90;;;;;;5117534;27;20100;-76
2024/01/07 11:15:51;;;;;;;4.30;2.30;;;0.70;99.90;;;;;;5123558;27;20472;-77
2024/01/07 11:18:20;;;;;;;4.63;2.33;;;0.80;99.90;;;;;;5116406;27;20050;-78
2024/01/07 11:20:50;;;;;;;3.85;2.40;;;0.70;99.90;;;;;;5117897;27;20480;-77
2024/01/07 11:23:39;;;;;;;3.63;2.30;;;0.80;99.90;;;;;;5097964;27;20100;-77
2024/01/07 11:26:06;;;;;;;5.63;2.43;;;0.90;99.90;;;;;;5141437;27;20046;-76
2024/01/07 11:28:44;;;;;;;6.00;2.60;;;0.90;99.90;;;;;;5103922;27;20095;-77
2024/01/07 11:31:10;;;;;;;5.23;2.40;;;0.90;99.90;;;;;;5127214;27;20037;-76
2024/01/07 11:33:41;;;;;;;3.43;1.63;;;0.90;99.90;;;;;;5124188;27;20525;-77
2024/01/07 11:36:07;;;;;;;4.97;2.47;;;1.00;99.90;;;;;;5113514;27;20129;-76
2024/01/07 11:38:39;;;;;;;4.83;2.50;;;1.00;99.90;;;;;;5126020;27;20137;-77
2024/01/07 11:41:07;;;;;;;5.53;2.73;;;1.00;99.90;;;;;;5118804;27;20049;-77
2024/01/07 11:43:34;;;;;;;2.83;2.00;;;1.10;99.90;;;;;;5125151;27;20034;-77
2024/01/07 11:46:00;;;;;;;4.97;2.70;;;1.10;99.90;;;;;;5122486;27;20699;-77
2024/01/07 11:48:26;;;;;;;3.37;2.00;;;1.10;99.90;;;;;;5113968;27;20035;-77
2024/01/07 11:50:52;;;;;;;4.90;2.63;;;1.20;99.90;;;;;;5125684;27;20042;-76
2024/01/07 11:53:18;;;;;;;4.17;2.37;;;1.20;99.90;;;;;;5122147;27;20126;-77
2024/01/07 11:55:45;;;;;;;5.10;2.43;;;1.30;99.90;;;;;;5119792;27;20051;-76
2024/01/07 11:58:11;;;;;;;3.90;2.43;;;1.30;99.90;;;;;;5121173;27;20478;-77
2024/01/07 12:00:37;;;;;;;7.27;2.70;;;1.30;99.90;;;;;;5116018;27;20042;-76
2024/01/07 12:03:03;;;;;;;5.67;3.17;;;1.30;99.90;;;;;;5121412;27;20050;-76
2024/01/07 12:05:30;;;;;;;5.23;2.63;;;1.30;99.90;;;;;;5121696;27;20039;-77
2024/01/07 12:07:56;;;;;;;4.77;2.90;;;1.30;99.90;;;;;;5116366;27;20112;-76
2024/01/07 12:10:28;;;;;;;6.50;2.90;;;1.30;99.90;;;;;;5115026;27;20027;-76
2024/01/07 12:12:54;;;;;;;4.45;3.13;;;1.40;99.90;;;;;;5125448;27;20070;-76
2024/01/07 12:15:23;;;;;;;5.20;2.63;;;1.40;99.90;;;;;;5116130;27;20568;-75
2024/01/07 12:18:01;;;;;;;4.53;2.90;;;1.40;99.90;;;;;;5113993;27;20046;-76
2024/01/07 12:20:27;;;;;;;5.20;3.13;;;1.40;99.90;;;;;;5142456;27;20077;-77
2024/01/07 12:22:57;;;;;;;4.90;3.03;;;1.30;99.90;;;;;;5121731;27;20039;-75
2024/01/07 12:25:26;;;;;;;4.53;3.07;;;1.30;99.90;;;;;;5109057;27;20059;-76
2024/01/07 12:27:52;;;;;;;5.20;3.10;;;1.30;99.90;;;;;;5121170;27;20049;-77
2024/01/07 12:30:24;;;;;;;5.90;3.50;;;1.20;99.90;;;;;;5123251;27;20179;-77
2024/01/07 12:32:52;;;;;;;7.93;3.43;;;1.20;99.90;;;;;;5123677;27;20515;-77
2024/01/07 12:35:21;;;;;;;5.63;3.50;;;1.20;99.90;;;;;;5121129;27;20138;-77
2024/01/07 12:37:49;;;;;;;5.93;3.90;;;1.10;99.90;;;;;;5122311;27;20477;-77
2024/01/07 12:40:14;;;;;;;6.87;3.90;;;1.10;99.90;;;;;;5112292;27;20038;-77
2024/01/07 12:42:49;;;;;;;5.65;4.03;;;1.10;99.90;;;;;;5099553;27;20053;-75
2024/01/07 12:45:15;;;;;;;8.02;4.30;;;1.10;99.90;;;;;;5114815;27;20031;-75
2024/01/07 12:47:42;;;;;;;6.03;4.40;;;1.10;99.90;;;;;;5120062;27;20091;-75